createdAt,value
2022-12-24T00:00:52.058Z,197.60
2022-12-24T00:01:52.038Z,204.70
2022-12-24T00:02:52.061Z,190.40
2022-12-24T00:03:52.208Z,198.80
2022-12-24T00:04:55.752Z,191.90
2022-12-24T00:05:51.995Z,210.90
2022-12-24T00:06:51.982Z,225.60
2022-12-24T00:07:51.968Z,206.30
2022-12-24T00:08:51.995Z,218.60
2022-12-24T00:09:51.949Z,242.90
2022-12-24T00:10:51.932Z,231.00
2022-12-24T00:11:51.931Z,232.10
2022-12-24T00:12:51.918Z,236.00
2022-12-24T00:13:51.904Z,244.50
2022-12-24T00:14:51.889Z,253.00
2022-12-24T00:15:51.893Z,209.00
2022-12-24T00:16:51.918Z,246.60
2022-12-24T00:17:51.854Z,218.50
2022-12-24T00:18:51.852Z,212.30
2022-12-24T00:19:51.832Z,245.30
2022-12-24T00:20:51.822Z,244.90
2022-12-24T00:21:51.809Z,206.30
2022-12-24T00:22:51.798Z,227.50
2022-12-24T00:23:51.788Z,210.60
2022-12-24T00:24:51.771Z,208.80
2022-12-24T00:25:51.776Z,220.30
2022-12-24T00:26:51.753Z,200.10
2022-12-24T00:27:51.750Z,227.20
2022-12-24T00:28:51.726Z,194.30
2022-12-24T00:29:51.733Z,205.50
2022-12-24T00:30:51.751Z,223.10
2022-12-24T00:31:51.693Z,207.50
2022-12-24T00:32:51.682Z,200.40
2022-12-24T00:33:51.673Z,205.80
2022-12-24T00:34:51.664Z,201.80
2022-12-24T00:35:51.650Z,198.00
2022-12-24T00:36:51.667Z,204.60
2022-12-24T00:37:51.630Z,236.80
2022-12-24T00:38:51.629Z,193.10
2022-12-24T00:39:51.602Z,216.10
2022-12-24T00:40:51.593Z,215.80
2022-12-24T00:41:51.580Z,207.20
2022-12-24T00:42:51.587Z,221.60
2022-12-24T00:43:51.556Z,215.80
2022-12-24T00:44:51.548Z,222.10
2022-12-24T00:45:51.575Z,197.10
2022-12-24T00:46:51.522Z,200.90
2022-12-24T00:47:51.513Z,195.80
2022-12-24T00:48:51.502Z,206.80
2022-12-24T00:49:51.487Z,209.10
2022-12-24T00:50:51.498Z,212.80
2022-12-24T00:51:51.539Z,233.60
2022-12-24T00:52:51.459Z,210.30
2022-12-24T00:53:51.568Z,218.30
2022-12-24T00:54:51.431Z,210.70
2022-12-24T00:55:51.433Z,212.40
2022-12-24T00:56:51.410Z,209.50
2022-12-24T00:57:51.395Z,201.00
2022-12-24T00:58:51.408Z,205.50
2022-12-24T00:59:51.385Z,217.10
2022-12-24T01:00:51.359Z,211.50
2022-12-24T01:01:51.449Z,230.90
2022-12-24T01:02:51.597Z,199.10
2022-12-24T01:03:51.501Z,211.60
2022-12-24T01:04:51.317Z,206.00
2022-12-24T01:05:51.310Z,213.20
2022-12-24T01:06:51.300Z,204.70
2022-12-24T01:07:51.280Z,235.00
2022-12-24T01:08:51.273Z,234.30
2022-12-24T01:09:51.267Z,200.60
2022-12-24T01:10:51.248Z,211.70
2022-12-24T01:11:51.233Z,206.70
2022-12-24T01:12:51.224Z,222.60
2022-12-24T01:13:51.215Z,228.70
2022-12-24T01:14:51.214Z,216.40
2022-12-24T01:15:51.293Z,207.50
2022-12-24T01:16:51.181Z,233.40
2022-12-24T01:17:51.161Z,206.20
2022-12-24T01:18:51.164Z,205.70
2022-12-24T01:19:51.141Z,213.50
2022-12-24T01:20:51.133Z,216.30
2022-12-24T01:21:51.120Z,226.00
2022-12-24T01:22:51.118Z,217.30
2022-12-24T01:23:51.098Z,222.50
2022-12-24T01:24:51.087Z,236.70
2022-12-24T01:25:51.072Z,254.50
2022-12-24T01:26:51.060Z,243.30
2022-12-24T01:27:51.051Z,239.40
2022-12-24T01:28:51.039Z,254.10
2022-12-24T01:29:51.028Z,252.20
2022-12-24T01:30:51.049Z,229.80
2022-12-24T01:31:51.005Z,227.70
2022-12-24T01:32:50.992Z,258.90
2022-12-24T01:33:50.980Z,252.60
2022-12-24T01:34:50.969Z,218.60
2022-12-24T01:35:50.963Z,239.70
2022-12-24T01:36:50.945Z,259.10
2022-12-24T01:37:50.936Z,251.90
2022-12-24T01:38:50.936Z,205.20
2022-12-24T01:39:50.912Z,241.20
2022-12-24T01:40:50.897Z,238.80
2022-12-24T01:41:50.887Z,235.70
2022-12-24T01:42:50.874Z,196.60
2022-12-24T01:43:50.880Z,268.30
2022-12-24T01:44:50.857Z,231.80
2022-12-24T01:45:50.844Z,253.40
2022-12-24T01:46:50.915Z,258.90
2022-12-24T01:47:50.817Z,232.50
2022-12-24T01:48:50.809Z,248.70
2022-12-24T01:49:50.791Z,229.40
2022-12-24T01:50:50.786Z,239.20
2022-12-24T01:51:50.770Z,257.60
2022-12-24T01:52:50.759Z,255.50
2022-12-24T01:53:50.752Z,239.70
2022-12-24T01:54:50.739Z,248.40
2022-12-24T01:55:50.778Z,237.10
2022-12-24T01:56:50.723Z,260.30
2022-12-24T01:57:50.711Z,244.70
2022-12-24T01:58:50.687Z,240.10
2022-12-24T01:59:50.677Z,249.10
2022-12-24T02:00:50.682Z,258.20
2022-12-24T02:01:50.732Z,252.50
2022-12-24T02:02:50.735Z,244.00
2022-12-24T02:03:50.686Z,241.00
2022-12-24T02:04:50.623Z,242.60
2022-12-24T02:05:50.614Z,249.80
2022-12-24T02:06:50.594Z,268.70
2022-12-24T02:07:50.584Z,281.20
2022-12-24T02:08:50.570Z,244.60
2022-12-24T02:09:50.557Z,248.20
2022-12-24T02:10:50.558Z,269.00
2022-12-24T02:11:50.542Z,283.60
2022-12-24T02:12:50.528Z,250.00
2022-12-24T02:13:50.513Z,288.40
2022-12-24T02:14:50.497Z,252.50
2022-12-24T02:15:50.583Z,239.70
2022-12-24T02:16:50.476Z,232.60
2022-12-24T02:17:50.467Z,258.20
2022-12-24T02:18:50.458Z,244.40
2022-12-24T02:19:50.444Z,265.80
2022-12-24T02:20:50.431Z,261.50
2022-12-24T02:21:50.423Z,251.40
2022-12-24T02:22:50.420Z,263.50
2022-12-24T02:23:50.398Z,248.90
2022-12-24T02:24:50.384Z,266.90
2022-12-24T02:25:50.399Z,294.50
2022-12-24T02:26:50.370Z,266.90
2022-12-24T02:27:50.348Z,234.90
2022-12-24T02:28:50.350Z,251.40
2022-12-24T02:29:50.329Z,270.80
2022-12-24T02:30:50.325Z,249.60
2022-12-24T02:31:50.351Z,260.50
2022-12-24T02:32:50.302Z,245.40
2022-12-24T02:33:50.282Z,257.40
2022-12-24T02:34:50.283Z,258.50
2022-12-24T02:35:50.269Z,263.60
2022-12-24T02:36:50.249Z,253.10
2022-12-24T02:37:50.236Z,248.00
2022-12-24T02:38:50.224Z,259.20
2022-12-24T02:39:50.249Z,258.20
2022-12-24T02:40:50.204Z,250.20
2022-12-24T02:41:50.184Z,241.10
2022-12-24T02:42:50.175Z,267.80
2022-12-24T02:43:50.167Z,284.00
2022-12-24T02:44:50.173Z,248.10
2022-12-24T02:45:55.234Z,249.90
2022-12-24T02:46:50.205Z,260.00
2022-12-24T02:47:50.125Z,264.10
2022-12-24T02:48:50.107Z,273.00
2022-12-24T02:49:50.098Z,245.60
2022-12-24T02:50:50.084Z,228.10
2022-12-24T02:51:50.083Z,243.70
2022-12-24T02:52:50.065Z,252.80
2022-12-24T02:53:50.051Z,234.00
2022-12-24T02:54:50.037Z,250.00
2022-12-24T02:55:50.028Z,247.20
2022-12-24T02:56:50.021Z,267.60
2022-12-24T02:57:50.004Z,241.50
2022-12-24T02:58:49.989Z,241.70
2022-12-24T02:59:49.978Z,246.40
2022-12-24T03:00:50.041Z,263.70
2022-12-24T03:01:50.016Z,228.90
2022-12-24T03:02:49.992Z,251.80
2022-12-24T03:03:49.933Z,251.90
2022-12-24T03:04:49.932Z,232.80
2022-12-24T03:05:49.920Z,263.00
2022-12-24T03:06:49.903Z,229.60
2022-12-24T03:07:49.894Z,240.90
2022-12-24T03:08:49.880Z,256.20
2022-12-24T03:09:49.865Z,259.10
2022-12-24T03:10:49.852Z,260.40
2022-12-24T03:11:49.843Z,277.10
2022-12-24T03:12:49.842Z,275.80
2022-12-24T03:13:49.821Z,286.10
2022-12-24T03:14:49.808Z,258.10
2022-12-24T03:15:49.861Z,246.30
2022-12-24T03:16:49.849Z,270.60
2022-12-24T03:17:49.793Z,245.00
2022-12-24T03:18:49.761Z,233.50
2022-12-24T03:19:49.752Z,246.80
2022-12-24T03:20:49.798Z,274.40
2022-12-24T03:21:49.731Z,265.00
2022-12-24T03:22:49.712Z,262.30
2022-12-24T03:23:49.699Z,252.90
2022-12-24T03:24:56.874Z,236.00
2022-12-24T03:26:54.269Z,257.10
2022-12-24T03:27:54.033Z,293.90
2022-12-24T03:29:57.833Z,265.10
2022-12-24T03:30:57.812Z,256.40
2022-12-24T03:32:50.909Z,263.00
2022-12-24T03:33:50.886Z,249.10
2022-12-24T03:35:43.794Z,238.90
2022-12-24T03:36:43.771Z,275.80
2022-12-24T03:38:47.759Z,273.80
2022-12-24T03:39:47.741Z,254.00
2022-12-24T03:41:40.833Z,274.60
2022-12-24T03:42:40.812Z,259.80
2022-12-24T03:44:44.813Z,240.50
2022-12-24T03:45:44.916Z,240.80
2022-12-24T03:47:37.884Z,258.80
2022-12-24T03:48:37.872Z,238.10
2022-12-24T03:50:30.969Z,239.80
2022-12-24T03:51:30.945Z,224.70
2022-12-24T03:53:34.919Z,230.00
2022-12-24T03:54:34.905Z,261.40
2022-12-24T03:56:28.588Z,264.80
2022-12-24T03:57:28.170Z,255.30
2022-12-24T03:59:32.173Z,242.40
2022-12-24T04:00:32.154Z,243.90
2022-12-24T04:02:36.178Z,262.60
2022-12-24T04:03:36.102Z,270.30
2022-12-24T04:04:36.092Z,253.90
2022-12-24T04:05:36.079Z,235.60
2022-12-24T04:06:36.068Z,239.20
2022-12-24T04:07:36.057Z,275.00
2022-12-24T04:08:36.046Z,262.30
2022-12-24T04:09:36.034Z,261.30
2022-12-24T04:10:36.035Z,263.50
2022-12-24T04:11:36.019Z,256.50
2022-12-24T04:12:36.001Z,259.00
2022-12-24T04:13:35.995Z,250.40
2022-12-24T04:14:35.973Z,254.30
2022-12-24T04:15:35.963Z,264.80
2022-12-24T04:16:35.999Z,263.60
2022-12-24T04:17:35.945Z,260.40
2022-12-24T04:18:35.966Z,236.80
2022-12-24T04:19:35.919Z,271.30
2022-12-24T04:20:35.914Z,241.30
2022-12-24T04:21:35.899Z,239.50
2022-12-24T04:22:35.882Z,241.30
2022-12-24T04:23:35.876Z,257.60
2022-12-24T04:24:35.865Z,250.80
2022-12-24T04:25:35.854Z,262.40
2022-12-24T04:26:35.834Z,253.80
2022-12-24T04:27:35.833Z,241.60
2022-12-24T04:28:35.816Z,248.20
2022-12-24T04:29:35.810Z,244.60
2022-12-24T04:30:35.789Z,256.60
2022-12-24T04:31:35.833Z,256.10
2022-12-24T04:32:35.787Z,268.30
2022-12-24T04:33:35.759Z,242.20
2022-12-24T04:34:35.749Z,242.70
2022-12-24T04:35:35.734Z,246.40
2022-12-24T04:36:35.736Z,246.60
2022-12-24T04:37:35.711Z,254.50
2022-12-24T04:38:35.709Z,248.20
2022-12-24T04:39:35.697Z,265.10
2022-12-24T04:40:35.679Z,266.70
2022-12-24T04:41:35.670Z,232.50
2022-12-24T04:42:35.655Z,238.80
2022-12-24T04:43:35.643Z,251.00
2022-12-24T04:44:35.635Z,253.70
2022-12-24T04:45:35.655Z,274.70
2022-12-24T04:46:35.611Z,261.90
2022-12-24T04:47:35.598Z,256.70
2022-12-24T04:48:35.587Z,259.60
2022-12-24T04:49:35.583Z,258.30
2022-12-24T04:50:35.567Z,247.90
2022-12-24T04:51:35.584Z,243.60
2022-12-24T04:52:35.540Z,276.40
2022-12-24T04:53:35.582Z,245.50
2022-12-24T04:54:35.541Z,253.40
2022-12-24T04:55:35.530Z,268.20
2022-12-24T04:56:35.514Z,260.90
2022-12-24T04:57:35.485Z,235.90
2022-12-24T04:58:35.479Z,224.50
2022-12-24T04:59:35.497Z,248.20
2022-12-24T05:00:35.451Z,241.90
2022-12-24T05:01:35.618Z,259.00
2022-12-24T05:02:35.557Z,254.50
2022-12-24T05:03:35.461Z,242.20
2022-12-24T05:04:35.406Z,250.30
2022-12-24T05:05:35.396Z,232.10
2022-12-24T05:06:35.380Z,253.30
2022-12-24T05:07:35.373Z,232.30
2022-12-24T05:08:35.363Z,222.70
2022-12-24T05:09:35.355Z,234.50
2022-12-24T05:10:35.340Z,241.90
2022-12-24T05:11:35.347Z,228.90
2022-12-24T05:12:35.318Z,227.60
2022-12-24T05:13:42.461Z,245.10
2022-12-24T05:14:35.297Z,247.00
2022-12-24T05:15:35.284Z,246.00
2022-12-24T05:16:35.322Z,246.00
2022-12-24T05:17:35.264Z,275.10
2022-12-24T05:18:35.248Z,256.20
2022-12-24T05:19:35.234Z,232.60
2022-12-24T05:20:35.228Z,257.00
2022-12-24T05:21:35.214Z,314.90
2022-12-24T05:22:35.224Z,283.30
2022-12-24T05:23:35.192Z,264.00
2022-12-24T05:24:35.180Z,258.70
2022-12-24T05:25:35.175Z,250.40
2022-12-24T05:26:35.163Z,287.10
2022-12-24T05:27:35.153Z,237.70
2022-12-24T05:28:35.137Z,236.90
2022-12-24T05:29:35.125Z,229.10
2022-12-24T05:30:35.159Z,234.60
2022-12-24T05:31:35.103Z,236.60
2022-12-24T05:32:35.100Z,250.10
2022-12-24T05:33:35.081Z,226.50
2022-12-24T05:34:35.076Z,273.40
2022-12-24T05:35:35.059Z,250.20
2022-12-24T05:36:35.049Z,248.10
2022-12-24T05:37:35.036Z,249.20
2022-12-24T05:38:35.026Z,227.60
2022-12-24T05:39:35.016Z,213.50
2022-12-24T05:40:35.107Z,233.90
2022-12-24T05:41:34.992Z,234.80
2022-12-24T05:42:34.984Z,222.30
2022-12-24T05:43:34.969Z,211.50
2022-12-24T05:44:34.960Z,230.80
2022-12-24T05:45:34.947Z,228.10
2022-12-24T05:46:34.961Z,230.80
2022-12-24T05:47:41.204Z,244.00
2022-12-24T05:48:34.918Z,211.00
2022-12-24T05:49:34.901Z,265.70
2022-12-24T05:50:34.894Z,233.10
2022-12-24T05:51:34.882Z,227.00
2022-12-24T05:52:34.878Z,214.90
2022-12-24T05:53:34.857Z,208.20
2022-12-24T05:54:34.846Z,191.90
2022-12-24T05:55:34.865Z,217.60
2022-12-24T05:56:34.831Z,199.00
2022-12-24T05:57:34.811Z,217.10
2022-12-24T05:58:34.799Z,217.70
2022-12-24T05:59:34.792Z,219.70
2022-12-24T06:00:34.801Z,228.70
2022-12-24T06:01:34.799Z,236.30
2022-12-24T06:02:34.784Z,208.30
2022-12-24T06:03:34.766Z,200.30
2022-12-24T06:04:34.760Z,195.10
2022-12-24T06:05:34.768Z,212.30
2022-12-24T06:06:34.890Z,212.20
2022-12-24T06:07:34.796Z,229.10
2022-12-24T06:08:34.873Z,216.40
2022-12-24T06:09:35.618Z,241.40
2022-12-24T06:10:34.667Z,223.80
2022-12-24T06:11:34.666Z,212.60
2022-12-24T06:12:34.646Z,214.00
2022-12-24T06:13:34.633Z,218.60
2022-12-24T06:14:34.618Z,188.70
2022-12-24T06:15:34.662Z,207.70
2022-12-24T06:16:34.723Z,190.70
2022-12-24T06:17:34.582Z,203.60
2022-12-24T06:18:34.579Z,194.80
2022-12-24T06:19:34.560Z,237.10
2022-12-24T06:20:34.555Z,212.70
2022-12-24T06:21:34.539Z,210.70
2022-12-24T06:22:34.546Z,199.90
2022-12-24T06:23:34.527Z,210.50
2022-12-24T06:24:34.504Z,210.60
2022-12-24T06:25:34.507Z,201.50
2022-12-24T06:26:34.710Z,243.50
2022-12-24T06:27:34.837Z,207.50
2022-12-24T06:28:34.462Z,220.70
2022-12-24T06:29:34.448Z,208.30
2022-12-24T06:30:34.439Z,215.00
2022-12-24T06:31:34.497Z,222.50
2022-12-24T06:32:34.416Z,234.60
2022-12-24T06:33:34.411Z,228.30
2022-12-24T06:34:34.393Z,243.70
2022-12-24T06:35:34.377Z,240.40
2022-12-24T06:36:34.371Z,244.80
2022-12-24T06:37:34.357Z,232.70
2022-12-24T06:38:34.349Z,211.40
2022-12-24T06:39:34.338Z,206.40
2022-12-24T06:40:34.323Z,209.40
2022-12-24T06:41:34.319Z,211.20
2022-12-24T06:42:34.300Z,212.70
2022-12-24T06:43:34.291Z,219.90
2022-12-24T06:44:34.277Z,222.00
2022-12-24T06:45:34.266Z,223.90
2022-12-24T06:46:34.309Z,206.50
2022-12-24T06:47:34.242Z,212.80
2022-12-24T06:48:34.247Z,211.00
2022-12-24T06:49:34.219Z,216.60
2022-12-24T06:50:34.216Z,211.00
2022-12-24T06:51:34.201Z,220.80
2022-12-24T06:52:34.189Z,213.00
2022-12-24T06:53:34.180Z,220.70
2022-12-24T06:54:34.169Z,215.30
2022-12-24T06:55:34.154Z,214.70
2022-12-24T06:56:34.167Z,217.80
2022-12-24T06:57:34.138Z,214.70
2022-12-24T06:58:34.120Z,231.80
2022-12-24T06:59:34.106Z,226.20
2022-12-24T07:00:34.098Z,223.80
2022-12-24T07:01:34.202Z,215.90
2022-12-24T07:02:34.340Z,217.20
2022-12-24T07:03:34.100Z,215.70
2022-12-24T07:04:34.059Z,227.80
2022-12-24T07:05:34.038Z,226.40
2022-12-24T07:06:34.027Z,220.50
2022-12-24T07:07:34.017Z,221.40
2022-12-24T07:08:34.023Z,220.60
2022-12-24T07:09:33.994Z,215.20
2022-12-24T07:10:33.987Z,230.00
2022-12-24T07:11:33.973Z,237.20
2022-12-24T07:12:33.960Z,243.10
2022-12-24T07:13:33.954Z,240.40
2022-12-24T07:14:33.937Z,235.90
2022-12-24T07:15:33.940Z,225.90
2022-12-24T07:16:34.121Z,209.50
2022-12-24T07:17:34.011Z,216.10
2022-12-24T07:18:33.885Z,225.10
2022-12-24T07:19:33.878Z,236.40
2022-12-24T07:20:33.866Z,248.00
2022-12-24T07:21:33.854Z,216.20
2022-12-24T07:22:33.850Z,226.20
2022-12-24T07:23:33.836Z,229.80
2022-12-24T07:24:33.823Z,246.10
2022-12-24T07:25:33.812Z,248.60
2022-12-24T07:26:33.799Z,256.20
2022-12-24T07:27:33.813Z,246.10
2022-12-24T07:28:33.789Z,230.90
2022-12-24T07:29:33.765Z,243.00
2022-12-24T07:30:33.754Z,238.20
2022-12-24T07:31:33.821Z,234.10
2022-12-24T07:32:33.729Z,228.30
2022-12-24T07:33:33.716Z,243.40
2022-12-24T07:34:33.724Z,240.60
2022-12-24T07:35:33.695Z,263.70
2022-12-24T07:36:33.701Z,248.50
2022-12-24T07:37:33.674Z,248.60
2022-12-24T07:38:33.661Z,231.50
2022-12-24T07:39:33.655Z,219.00
2022-12-24T07:40:33.640Z,234.00
2022-12-24T07:41:38.000Z,255.50
2022-12-24T07:42:33.627Z,238.20
2022-12-24T07:43:33.604Z,248.60
2022-12-24T07:44:33.602Z,246.60
2022-12-24T07:45:33.587Z,263.70
2022-12-24T07:46:33.601Z,250.50
2022-12-24T07:47:33.607Z,232.00
2022-12-24T07:48:33.575Z,254.70
2022-12-24T07:49:33.560Z,251.80
2022-12-24T07:50:33.535Z,237.70
2022-12-24T07:51:33.534Z,256.80
2022-12-24T07:52:33.510Z,252.10
2022-12-24T07:53:33.524Z,234.50
2022-12-24T07:54:33.493Z,237.50
2022-12-24T07:55:33.471Z,245.90
2022-12-24T07:56:33.465Z,246.80
2022-12-24T07:57:33.454Z,218.70
2022-12-24T07:58:33.438Z,246.20
2022-12-24T07:59:33.426Z,245.00
2022-12-24T08:00:33.437Z,264.20
2022-12-24T08:01:33.507Z,246.00
2022-12-24T08:02:33.550Z,262.90
2022-12-24T08:03:33.547Z,253.90
2022-12-24T08:04:33.397Z,262.50
2022-12-24T08:05:33.367Z,251.90
2022-12-24T08:06:33.346Z,256.70
2022-12-24T08:07:33.331Z,247.80
2022-12-24T08:08:33.512Z,239.90
2022-12-24T08:09:33.314Z,262.40
2022-12-24T08:10:33.310Z,250.70
2022-12-24T08:11:33.292Z,252.60
2022-12-24T08:12:33.275Z,241.20
2022-12-24T08:13:33.267Z,239.40
2022-12-24T08:14:33.264Z,247.50
2022-12-24T08:15:33.245Z,244.50
2022-12-24T08:16:33.309Z,266.80
2022-12-24T08:17:33.257Z,259.10
2022-12-24T08:18:33.219Z,244.00
2022-12-24T08:19:33.226Z,260.00
2022-12-24T08:20:33.187Z,252.50
2022-12-24T08:21:33.174Z,253.50
2022-12-24T08:22:33.166Z,246.90
2022-12-24T08:23:33.152Z,250.40
2022-12-24T08:24:33.147Z,260.20
2022-12-24T08:25:33.143Z,244.70
2022-12-24T08:26:33.135Z,260.40
2022-12-24T08:27:33.189Z,236.60
2022-12-24T08:28:33.094Z,243.60
2022-12-24T08:29:33.083Z,228.80
2022-12-24T08:30:33.074Z,263.50
2022-12-24T08:31:33.089Z,272.10
2022-12-24T08:32:33.048Z,261.90
2022-12-24T08:33:33.059Z,262.30
2022-12-24T08:34:33.141Z,258.60
2022-12-24T08:35:33.017Z,308.90
2022-12-24T08:36:33.005Z,254.30
2022-12-24T08:37:32.992Z,276.90
2022-12-24T08:38:33.005Z,247.40
2022-12-24T08:39:32.969Z,262.60
2022-12-24T08:40:32.960Z,262.40
2022-12-24T08:41:32.951Z,292.00
2022-12-24T08:42:32.992Z,247.70
2022-12-24T08:43:32.932Z,257.50
2022-12-24T08:44:32.911Z,278.60
2022-12-24T08:45:38.170Z,256.20
2022-12-24T08:46:32.935Z,247.80
2022-12-24T08:47:32.881Z,253.30
2022-12-24T08:48:32.871Z,267.90
2022-12-24T08:49:32.859Z,286.70
2022-12-24T08:50:32.844Z,288.80
2022-12-24T08:51:32.835Z,266.30
2022-12-24T08:52:32.823Z,253.40
2022-12-24T08:53:32.811Z,268.90
2022-12-24T08:54:32.800Z,279.10
2022-12-24T08:55:32.786Z,282.30
2022-12-24T08:56:32.775Z,261.40
2022-12-24T08:57:32.763Z,262.90
2022-12-24T08:58:32.770Z,269.10
2022-12-24T08:59:32.739Z,287.70
2022-12-24T09:00:32.742Z,267.60
2022-12-24T09:01:32.787Z,268.10
2022-12-24T09:02:32.955Z,274.20
2022-12-24T09:03:32.748Z,280.90
2022-12-24T09:04:32.688Z,277.60
2022-12-24T09:05:32.672Z,294.80
2022-12-24T09:06:32.676Z,254.80
2022-12-24T09:07:32.668Z,272.90
2022-12-24T09:08:32.641Z,272.10
2022-12-24T09:09:37.677Z,284.10
2022-12-24T09:10:32.610Z,255.00
2022-12-24T09:11:32.617Z,266.70
2022-12-24T09:12:32.591Z,271.40
2022-12-24T09:13:32.581Z,260.20
2022-12-24T09:14:32.574Z,256.70
2022-12-24T09:15:32.643Z,263.40
2022-12-24T09:16:32.657Z,261.10
2022-12-24T09:17:32.534Z,244.90
2022-12-24T09:18:32.525Z,248.60
2022-12-24T09:19:32.517Z,258.90
2022-12-24T09:20:32.502Z,261.70
2022-12-24T09:21:32.497Z,267.90
2022-12-24T09:22:32.479Z,261.20
2022-12-24T09:23:32.468Z,248.50
2022-12-24T09:24:32.466Z,248.60
2022-12-24T09:25:32.445Z,242.90
2022-12-24T09:26:32.433Z,243.00
2022-12-24T09:27:39.629Z,244.10
2022-12-24T09:29:36.398Z,264.10
2022-12-24T09:30:36.377Z,280.70
2022-12-24T09:31:36.440Z,260.10
2022-12-24T09:32:36.364Z,235.00
2022-12-24T09:33:36.336Z,243.90
2022-12-24T09:34:36.343Z,243.70
2022-12-24T09:35:36.323Z,237.90
2022-12-24T09:36:36.303Z,250.90
2022-12-24T09:37:36.297Z,278.20
2022-12-24T09:38:36.296Z,256.80
2022-12-24T09:39:36.274Z,265.10
2022-12-24T09:40:36.260Z,276.90
2022-12-24T09:41:36.262Z,253.30
2022-12-24T09:42:36.235Z,266.00
2022-12-24T09:43:36.226Z,258.40
2022-12-24T09:44:36.252Z,265.70
2022-12-24T09:45:36.285Z,266.70
2022-12-24T09:46:36.200Z,262.90
2022-12-24T09:47:36.195Z,262.90
2022-12-24T09:48:36.175Z,273.70
2022-12-24T09:49:36.163Z,253.10
2022-12-24T09:50:36.153Z,246.00
2022-12-24T09:51:36.135Z,248.40
2022-12-24T09:52:36.137Z,244.30
2022-12-24T09:53:36.113Z,254.00
2022-12-24T09:54:36.105Z,252.50
2022-12-24T09:55:36.088Z,238.70
2022-12-24T09:56:36.081Z,240.50
2022-12-24T09:57:36.075Z,248.10
2022-12-24T09:58:36.075Z,254.10
2022-12-24T09:59:36.044Z,269.70
2022-12-24T10:00:36.035Z,297.10
2022-12-24T10:01:36.162Z,273.30
2022-12-24T10:02:36.125Z,253.50
2022-12-24T10:03:36.052Z,259.20
2022-12-24T10:04:35.991Z,260.10
2022-12-24T10:05:35.980Z,237.10
2022-12-24T10:06:35.967Z,266.50
2022-12-24T10:07:35.956Z,254.60
2022-12-24T10:08:36.061Z,252.00
2022-12-24T10:09:35.934Z,307.70
2022-12-24T10:10:35.924Z,265.10
2022-12-24T10:11:35.919Z,293.00
2022-12-24T10:12:35.924Z,280.00
2022-12-24T10:13:35.891Z,282.10
2022-12-24T10:14:35.884Z,312.30
2022-12-24T10:15:35.869Z,280.50
2022-12-24T10:16:35.954Z,293.90
2022-12-24T10:17:35.848Z,278.60
2022-12-24T10:18:35.836Z,272.30
2022-12-24T10:19:35.829Z,309.50
2022-12-24T10:20:35.820Z,287.50
2022-12-24T10:21:35.805Z,251.00
2022-12-24T10:22:35.804Z,275.40
2022-12-24T10:23:35.779Z,276.60
2022-12-24T10:24:35.798Z,290.80
2022-12-24T10:25:35.759Z,301.30
2022-12-24T10:26:35.754Z,281.00
2022-12-24T10:27:35.742Z,261.50
2022-12-24T10:28:35.769Z,285.00
2022-12-24T10:29:35.719Z,275.10
2022-12-24T10:30:35.725Z,290.20
2022-12-24T10:31:35.711Z,276.00
2022-12-24T10:32:35.704Z,290.00
2022-12-24T10:33:35.673Z,301.80
2022-12-24T10:34:35.665Z,278.70
2022-12-24T10:35:35.655Z,268.70
2022-12-24T10:36:35.647Z,263.50
2022-12-24T10:37:35.640Z,274.50
2022-12-24T10:38:35.627Z,287.50
2022-12-24T10:39:35.612Z,309.80
2022-12-24T10:40:35.628Z,273.10
2022-12-24T10:41:35.593Z,295.20
2022-12-24T10:42:35.589Z,294.90
2022-12-24T10:43:35.590Z,296.10
2022-12-24T10:44:35.578Z,284.30
2022-12-24T10:45:35.584Z,266.00
2022-12-24T10:46:35.589Z,276.50
2022-12-24T10:47:35.570Z,302.60
2022-12-24T10:48:35.520Z,290.80
2022-12-24T10:49:35.550Z,296.80
2022-12-24T10:50:35.527Z,309.80
2022-12-24T10:51:35.786Z,339.40
2022-12-24T10:52:35.476Z,354.30
2022-12-24T10:53:35.469Z,292.10
2022-12-24T10:54:35.459Z,276.30
2022-12-24T10:55:35.456Z,305.50
2022-12-24T10:56:35.436Z,276.30
2022-12-24T10:57:35.448Z,286.10
2022-12-24T10:58:35.423Z,293.00
2022-12-24T10:59:35.410Z,302.10
2022-12-24T11:00:36.627Z,280.70
2022-12-24T11:01:35.521Z,299.70
2022-12-24T11:02:35.649Z,332.80
2022-12-24T11:03:35.464Z,334.40
2022-12-24T11:04:35.358Z,318.90
2022-12-24T11:05:35.342Z,319.70
2022-12-24T11:06:35.514Z,315.70
2022-12-24T11:07:35.336Z,298.90
2022-12-24T11:08:35.329Z,301.80
2022-12-24T11:09:35.304Z,322.60
2022-12-24T11:10:35.323Z,320.10
2022-12-24T11:11:35.311Z,314.40
2022-12-24T11:12:35.285Z,326.70
2022-12-24T11:13:38.549Z,260.20
2022-12-24T11:14:35.255Z,260.50
2022-12-24T11:15:35.283Z,268.00
2022-12-24T11:16:35.275Z,265.50
2022-12-24T11:17:35.230Z,286.20
2022-12-24T11:18:35.215Z,293.70
2022-12-24T11:19:35.210Z,305.80
2022-12-24T11:20:35.191Z,272.30
2022-12-24T11:21:35.190Z,290.60
2022-12-24T11:22:35.290Z,279.20
2022-12-24T11:23:35.163Z,298.70
2022-12-24T11:24:35.169Z,289.20
2022-12-24T11:25:35.146Z,294.90
2022-12-24T11:26:35.135Z,293.10
2022-12-24T11:27:35.122Z,287.40
2022-12-24T11:28:35.133Z,293.90
2022-12-24T11:29:35.113Z,286.20
2022-12-24T11:30:35.281Z,320.10
2022-12-24T11:31:35.113Z,302.60
2022-12-24T11:32:35.078Z,324.50
2022-12-24T11:33:35.070Z,306.70
2022-12-24T11:34:35.054Z,299.30
2022-12-24T11:35:35.044Z,312.70
2022-12-24T11:36:35.041Z,283.10
2022-12-24T11:37:35.026Z,297.10
2022-12-24T11:38:35.031Z,294.50
2022-12-24T11:39:35.008Z,293.50
2022-12-24T11:40:35.017Z,308.30
2022-12-24T11:41:34.984Z,311.70
2022-12-24T11:42:34.989Z,302.50
2022-12-24T11:43:34.968Z,282.20
2022-12-24T11:44:34.951Z,284.20
2022-12-24T11:45:34.960Z,300.50
2022-12-24T11:46:35.004Z,305.00
2022-12-24T11:47:34.932Z,281.10
2022-12-24T11:48:34.917Z,266.20
2022-12-24T11:49:34.908Z,265.30
2022-12-24T11:50:34.897Z,275.30
2022-12-24T11:51:34.902Z,276.70
2022-12-24T11:52:34.877Z,268.30
2022-12-24T11:53:34.874Z,272.90
2022-12-24T11:54:34.858Z,278.30
2022-12-24T11:55:34.858Z,259.70
2022-12-24T11:56:34.835Z,266.40
2022-12-24T11:57:34.835Z,286.40
2022-12-24T11:58:34.825Z,270.00
2022-12-24T11:59:34.813Z,278.30
2022-12-24T12:00:34.796Z,270.50
2022-12-24T12:01:34.819Z,294.70
2022-12-24T12:02:34.834Z,275.30
2022-12-24T12:03:34.818Z,268.90
2022-12-24T12:04:34.759Z,284.20
2022-12-24T12:05:34.780Z,285.20
2022-12-24T12:06:34.741Z,274.40
2022-12-24T12:07:34.734Z,270.20
2022-12-24T12:08:34.717Z,252.00
2022-12-24T12:09:34.736Z,278.20
2022-12-24T12:10:34.703Z,246.70
2022-12-24T12:11:34.691Z,258.60
2022-12-24T12:12:34.682Z,268.30
2022-12-24T12:13:34.673Z,276.70
2022-12-24T12:14:34.668Z,256.60
2022-12-24T12:15:34.660Z,259.70
2022-12-24T12:16:34.671Z,257.20
2022-12-24T12:17:34.634Z,250.60
2022-12-24T12:18:34.628Z,251.80
2022-12-24T12:19:34.619Z,261.40
2022-12-24T12:20:34.630Z,248.50
2022-12-24T12:21:34.599Z,248.60
2022-12-24T12:22:34.583Z,240.60
2022-12-24T12:23:34.578Z,268.00
2022-12-24T12:24:34.569Z,272.40
2022-12-24T12:25:34.558Z,248.30
2022-12-24T12:26:34.546Z,250.30
2022-12-24T12:27:34.548Z,246.90
2022-12-24T12:28:34.534Z,250.80
2022-12-24T12:29:34.517Z,239.10
2022-12-24T12:30:34.512Z,268.70
2022-12-24T12:31:34.548Z,259.10
2022-12-24T12:32:34.545Z,257.30
2022-12-24T12:33:34.478Z,235.20
2022-12-24T12:34:34.473Z,251.20
2022-12-24T12:35:34.463Z,246.70
2022-12-24T12:36:34.457Z,235.00
2022-12-24T12:37:34.448Z,231.80
2022-12-24T12:38:34.432Z,254.90
2022-12-24T12:39:34.460Z,255.70
2022-12-24T12:40:34.411Z,231.80
2022-12-24T12:41:34.413Z,257.10
2022-12-24T12:42:34.390Z,246.20